Main page
METAR-TAF:

METAR-TAF

Airports :

Mandalay International Airport

Mandalay, Myanmar

latitude: 21-59N, longitude: 096-06E, elevation: 74 m

Current weather observation

The report was made 9 hours and 40 minutes ago, at 11:30 UTC
Calm wind
Temperature 30°C
Humidity 52%
Pressure 1008 hPa
Visibility: 6000 m
Scattered clouds at a height of 2000 ft

METAR: VYMD 011130Z 00000KT 6000 SCT020 30/19 Q1008 NOSIG

Time: 03:40 (21:10 UTC)

Forecast

The report was made 4 hours and 10 minutes ago, at 17:00 UTC
Forecast valid from 01 at 18 UTC to 02 at 18 UTC
Wind 3 kt from the North
Visibility: 7000 m
Scattered clouds at a height of 2500 ft
Temporary
from 01 at 18 UTC to 01 at 24 UTC
Wind 4 kt from the North
Visibility: 6000 m
Scattered clouds at a height of 2000 ft
Scattered clouds at a height of 12000 ft

TAF: VYMD 011700Z 0118/0218 36003KT 7000 SCT025 TEMPO 0118/0124 36004KT 6000 SCT020 SCT120

Weather observations and forecasts of more than 4000 airports (METAR and TAF reports).

The available stations are represented by yellow and red dots on the map.

Hover mouse over dot to see the name of the station.

Then click to see weather observations and forecasts.

To change the map : click on the green buttons with a black cross to zoom in, on the green button with a dash to zoom out, or on the green arrows for adjacent maps.


METAR-TAF: